createdAt,value
2019-01-14T00:04:55.677Z,6.17
2019-01-14T00:09:58.414Z,5.17
2019-01-14T00:15:00.925Z,5.20
2019-01-14T00:20:04.832Z,5.30
2019-01-14T00:25:07.542Z,5.30
2019-01-14T00:30:13.000Z,5.30
2019-01-14T00:35:16.630Z,3.63
2019-01-14T00:40:19.723Z,3.90
2019-01-14T00:45:22.825Z,4.80
2019-01-14T00:50:25.864Z,3.93
2019-01-14T00:55:28.668Z,4.23
2019-01-14T01:00:31.534Z,4.13
2019-01-14T01:05:34.171Z,4.20
2019-01-14T01:10:37.047Z,3.77
2019-01-14T01:15:39.695Z,3.37
2019-01-14T01:20:43.161Z,3.50
2019-01-14T01:25:46.270Z,4.30
2019-01-14T01:30:48.752Z,4.00
2019-01-14T01:35:51.574Z,3.80
2019-01-14T01:40:54.466Z,3.20
2019-01-14T01:45:57.482Z,4.47
2019-01-14T01:51:00.251Z,3.53
2019-01-14T01:56:02.540Z,3.23
2019-01-14T02:01:05.764Z,3.17
2019-01-14T02:06:08.428Z,3.47
2019-01-14T02:11:11.496Z,4.20
2019-01-14T02:16:14.253Z,4.03
2019-01-14T02:21:16.779Z,4.03
2019-01-14T02:26:19.883Z,3.30
2019-01-14T02:31:22.584Z,3.20
2019-01-14T02:36:24.622Z,4.27
2019-01-14T02:41:27.542Z,4.73
2019-01-14T02:46:30.367Z,3.53
2019-01-14T02:51:32.843Z,3.87
2019-01-14T02:56:35.342Z,2.00
2019-01-14T03:01:38.093Z,2.60
2019-01-14T03:06:40.636Z,3.60
2019-01-14T03:11:43.452Z,1.63
2019-01-14T03:16:46.039Z,2.30
2019-01-14T03:21:49.035Z,1.47
2019-01-14T03:26:52.063Z,2.70
2019-01-14T03:31:54.648Z,3.63
2019-01-14T03:36:57.180Z,2.37
2019-01-14T03:42:00.342Z,2.67
2019-01-14T03:47:02.834Z,2.37
2019-01-14T03:52:05.712Z,2.83
2019-01-14T03:57:07.826Z,2.97
2019-01-14T04:02:10.628Z,2.70
2019-01-14T04:07:13.763Z,3.53
2019-01-14T04:12:17.235Z,3.20
2019-01-14T04:17:19.597Z,3.50
2019-01-14T04:22:22.440Z,3.57
2019-01-14T04:27:25.268Z,3.67
2019-01-14T04:32:28.332Z,3.10
2019-01-14T04:37:31.118Z,3.53
2019-01-14T04:42:33.653Z,3.67
2019-01-14T04:47:35.534Z,4.27
2019-01-14T04:52:37.924Z,3.13
2019-01-14T04:57:39.986Z,3.87
2019-01-14T05:02:42.493Z,4.27
2019-01-14T05:07:44.967Z,3.30
2019-01-14T05:12:48.480Z,3.40
2019-01-14T05:17:51.124Z,3.40
2019-01-14T05:22:54.510Z,4.00
2019-01-14T05:27:57.413Z,3.43
2019-01-14T05:32:59.910Z,3.07
2019-01-14T05:38:01.990Z,3.70
2019-01-14T05:43:04.891Z,2.73
2019-01-14T05:48:07.519Z,2.00
2019-01-14T05:53:10.575Z,2.20
2019-01-14T05:58:13.370Z,4.30
2019-01-14T06:03:16.498Z,2.33
2019-01-14T06:08:20.520Z,2.03
2019-01-14T06:13:23.340Z,2.13
2019-01-14T06:18:26.638Z,2.73
2019-01-14T06:23:29.235Z,2.67
2019-01-14T06:28:31.703Z,2.07
2019-01-14T06:33:34.634Z,1.70
2019-01-14T06:38:37.331Z,2.27
2019-01-14T06:43:39.412Z,1.90
2019-01-14T06:48:42.006Z,2.50
2019-01-14T06:53:44.990Z,2.13
2019-01-14T06:58:47.679Z,2.30
2019-01-14T07:03:50.584Z,2.30
2019-01-14T07:08:53.410Z,2.23
2019-01-14T07:13:56.511Z,2.07
2019-01-14T07:18:59.009Z,2.43
2019-01-14T07:24:01.203Z,2.20
2019-01-14T07:29:03.836Z,1.90
2019-01-14T07:34:06.272Z,2.50
2019-01-14T07:39:09.219Z,2.60
2019-01-14T07:44:11.891Z,2.50
2019-01-14T07:49:14.279Z,2.03
2019-01-14T07:54:16.957Z,2.30
2019-01-14T07:59:19.649Z,2.67
2019-01-14T08:04:22.074Z,1.75
2019-01-14T08:09:24.787Z,1.90
2019-01-14T08:14:27.360Z,2.20
2019-01-14T08:19:30.028Z,2.00
2019-01-14T08:24:32.719Z,2.20
2019-01-14T08:29:35.432Z,2.80
2019-01-14T08:34:37.914Z,2.03
2019-01-14T08:39:40.847Z,2.03
2019-01-14T08:44:43.922Z,1.70
2019-01-14T08:49:47.046Z,1.63
2019-01-14T08:54:49.980Z,2.20
2019-01-14T08:59:53.018Z,1.50
2019-01-14T09:04:55.695Z,2.50
2019-01-14T09:09:58.058Z,2.30
2019-01-14T09:15:00.843Z,1.70
2019-01-14T09:20:05.916Z,1.90
2019-01-14T09:25:09.551Z,2.00
2019-01-14T09:30:22.951Z,2.73
2019-01-14T09:35:26.087Z,2.40
2019-01-14T09:40:28.992Z,2.27
2019-01-14T09:45:32.081Z,2.10
2019-01-14T09:50:35.107Z,1.60
2019-01-14T09:55:37.719Z,2.10
2019-01-14T10:00:40.498Z,1.33
2019-01-14T10:05:43.607Z,1.10
2019-01-14T10:10:46.496Z,2.87
2019-01-14T10:15:49.416Z,2.10
2019-01-14T10:20:52.015Z,1.63
2019-01-14T10:25:55.085Z,1.30
2019-01-14T10:30:57.611Z,3.20
2019-01-14T10:36:00.453Z,1.40
2019-01-14T10:41:03.369Z,1.50
2019-01-14T10:46:05.877Z,2.13
2019-01-14T10:51:08.621Z,1.23
2019-01-14T10:56:11.226Z,2.37
2019-01-14T11:01:13.359Z,1.47
2019-01-14T11:06:15.785Z,1.50
2019-01-14T11:11:18.426Z,1.23
2019-01-14T11:16:21.197Z,1.83
2019-01-14T11:21:23.782Z,2.13
2019-01-14T11:26:26.577Z,1.87
2019-01-14T11:31:29.410Z,1.87
2019-01-14T11:36:32.075Z,1.90
2019-01-14T11:41:34.465Z,1.30
2019-01-14T11:46:37.465Z,1.20
2019-01-14T11:51:39.957Z,2.10
2019-01-14T11:56:43.061Z,1.63
2019-01-14T12:01:45.597Z,1.67
2019-01-14T12:06:48.281Z,1.60
2019-01-14T12:11:51.333Z,1.80
2019-01-14T12:16:53.727Z,1.40
2019-01-14T12:21:55.949Z,1.43
2019-01-14T12:26:59.076Z,1.47
2019-01-14T12:32:02.241Z,1.63
2019-01-14T12:37:04.740Z,1.20
2019-01-14T12:42:07.250Z,1.80
2019-01-14T12:47:10.063Z,2.40
2019-01-14T12:52:12.815Z,1.50
2019-01-14T12:57:15.614Z,1.27
2019-01-14T13:02:17.739Z,2.07
2019-01-14T13:07:20.857Z,2.23
2019-01-14T13:12:22.952Z,2.13
2019-01-14T13:17:25.520Z,2.77
2019-01-14T13:22:28.725Z,2.37
2019-01-14T13:27:30.920Z,2.13
2019-01-14T13:32:34.023Z,2.03
2019-01-14T13:37:36.909Z,2.00
2019-01-14T13:42:39.537Z,1.80
2019-01-14T13:47:42.521Z,1.70
2019-01-14T13:52:45.616Z,1.93
2019-01-14T13:57:48.631Z,4.00
2019-01-14T14:02:52.018Z,2.13
2019-01-14T14:07:54.247Z,2.33
2019-01-14T14:12:57.152Z,3.60
2019-01-14T14:18:00.129Z,1.77
2019-01-14T14:23:02.758Z,2.43
2019-01-14T14:28:05.840Z,2.77
2019-01-14T14:33:08.957Z,3.10
2019-01-14T14:38:11.769Z,2.23
2019-01-14T14:43:14.433Z,2.80
2019-01-14T14:48:17.238Z,2.80
2019-01-14T14:53:19.753Z,2.97
2019-01-14T14:58:22.755Z,2.67
2019-01-14T15:03:25.397Z,3.10
2019-01-14T15:08:28.154Z,2.80
2019-01-14T15:13:31.260Z,3.30
2019-01-14T15:18:34.247Z,2.30
2019-01-14T15:23:37.075Z,3.07
2019-01-14T15:28:39.876Z,2.33
2019-01-14T15:33:42.981Z,3.83
2019-01-14T15:38:45.221Z,2.97
2019-01-14T15:43:48.183Z,5.27
2019-01-14T15:48:51.479Z,3.93
2019-01-14T15:53:53.889Z,3.40
2019-01-14T15:58:56.964Z,2.50
2019-01-14T16:03:59.657Z,3.50
2019-01-14T16:09:02.972Z,3.40
2019-01-14T16:14:05.679Z,2.80
2019-01-14T16:19:08.718Z,3.50
2019-01-14T16:24:10.912Z,3.60
2019-01-14T16:29:13.340Z,2.63
2019-01-14T16:34:16.156Z,4.12
2019-01-14T16:39:18.967Z,3.90
2019-01-14T16:44:20.837Z,3.50
2019-01-14T16:49:23.302Z,4.28
2019-01-14T16:54:26.025Z,3.70
2019-01-14T16:59:28.963Z,3.30
2019-01-14T17:04:32.069Z,3.37
2019-01-14T17:09:34.919Z,3.80
2019-01-14T17:14:37.442Z,3.57
2019-01-14T17:19:40.762Z,2.77
2019-01-14T17:24:43.637Z,5.20
2019-01-14T17:29:45.743Z,3.97
2019-01-14T17:34:48.457Z,4.33
2019-01-14T17:39:50.926Z,3.70
2019-01-14T17:44:53.934Z,3.77
2019-01-14T17:49:56.842Z,3.30
2019-01-14T17:54:59.027Z,4.00
2019-01-14T18:00:01.523Z,3.27
2019-01-14T18:05:04.707Z,2.30
2019-01-14T18:10:08.791Z,3.13
2019-01-14T18:15:11.768Z,3.30
2019-01-14T18:20:16.823Z,4.17
2019-01-14T18:25:19.606Z,4.80
2019-01-14T18:30:22.482Z,2.87
2019-01-14T18:35:25.239Z,3.27
2019-01-14T18:40:33.826Z,2.80
2019-01-14T18:45:32.581Z,4.30
2019-01-14T18:50:35.472Z,3.60
2019-01-14T18:55:39.392Z,3.20
2019-01-14T19:00:42.059Z,5.03
2019-01-14T19:05:45.001Z,3.03
2019-01-14T19:10:54.153Z,2.90
2019-01-14T19:15:52.228Z,2.97
2019-01-14T19:20:55.426Z,3.70
2019-01-14T19:25:58.444Z,3.20
2019-01-14T19:31:01.981Z,3.03
2019-01-14T19:36:05.451Z,3.47
2019-01-14T19:41:10.442Z,3.13
2019-01-14T19:46:14.101Z,2.70
2019-01-14T19:51:17.434Z,3.10
2019-01-14T19:56:21.998Z,3.10
2019-01-14T20:01:27.744Z,2.93
2019-01-14T20:06:33.911Z,3.13
2019-01-14T20:11:37.912Z,4.00
2019-01-14T20:16:42.780Z,3.50
2019-01-14T20:21:48.817Z,3.70
2019-01-14T20:26:54.181Z,4.20
2019-01-14T20:32:01.051Z,3.90
2019-01-14T20:37:05.864Z,3.63
2019-01-14T20:42:10.415Z,3.53
2019-01-14T20:47:15.077Z,3.93
2019-01-14T20:52:20.081Z,4.37
2019-01-14T20:57:23.983Z,3.67
2019-01-14T21:02:30.219Z,3.87
2019-01-14T21:07:34.043Z,4.00
2019-01-14T21:12:37.486Z,3.37
2019-01-14T21:17:40.268Z,4.30
2019-01-14T21:22:45.376Z,3.23
2019-01-14T21:27:48.777Z,4.17
2019-01-14T21:32:51.355Z,4.00
2019-01-14T21:37:55.603Z,4.87
2019-01-14T21:42:58.611Z,5.23
2019-01-14T21:48:01.642Z,3.50
2019-01-14T21:53:04.288Z,4.13
2019-01-14T21:58:07.027Z,2.87
2019-01-14T22:03:09.906Z,3.80
2019-01-14T22:08:13.059Z,4.10
2019-01-14T22:13:15.103Z,4.80
2019-01-14T22:18:17.502Z,3.70
2019-01-14T22:23:20.294Z,4.70
2019-01-14T22:28:22.881Z,3.73
2019-01-14T22:33:25.626Z,3.60
2019-01-14T22:38:28.276Z,5.90
2019-01-14T22:43:31.197Z,4.27
2019-01-14T22:48:34.217Z,4.10
2019-01-14T22:53:36.845Z,2.93
2019-01-14T22:58:39.376Z,3.67
2019-01-14T23:03:43.924Z,4.50
2019-01-14T23:08:46.913Z,3.50
2019-01-14T23:13:49.524Z,4.13
2019-01-14T23:18:52.608Z,3.70
2019-01-14T23:23:55.237Z,3.87
2019-01-14T23:28:58.444Z,3.27
2019-01-14T23:34:01.431Z,4.10
2019-01-14T23:39:07.495Z,4.60
2019-01-14T23:44:10.386Z,3.50
2019-01-14T23:49:12.397Z,4.37
2019-01-14T23:54:15.443Z,2.77
2019-01-14T23:59:18.262Z,2.90
